sensor_id;sensor_type;location;lat;lon;timestamp;P1;durP1;ratioP1;P2;durP2;ratioP2
60859;SDS011;46694;54.382;9.708;2023-01-13T00:02:35;30.70;;;4.60;;
60859;SDS011;46694;54.382;9.708;2023-01-13T00:05:15;24.85;;;4.07;;
60859;SDS011;46694;54.382;9.708;2023-01-13T00:07:54;21.10;;;3.27;;
60859;SDS011;46694;54.382;9.708;2023-01-13T00:10:34;33.77;;;4.13;;
60859;SDS011;46694;54.382;9.708;2023-01-13T00:13:15;35.37;;;5.40;;
60859;SDS011;46694;54.382;9.708;2023-01-13T00:15:56;19.02;;;3.72;;
60859;SDS011;46694;54.382;9.708;2023-01-13T00:18:42;27.50;;;4.65;;
60859;SDS011;46694;54.382;9.708;2023-01-13T00:21:22;41.50;;;6.70;;
60859;SDS011;46694;54.382;9.708;2023-01-13T00:24:02;29.00;;;4.50;;
60859;SDS011;46694;54.382;9.708;2023-01-13T00:26:42;31.85;;;3.35;;
60859;SDS011;46694;54.382;9.708;2023-01-13T00:29:22;34.87;;;4.30;;
60859;SDS011;46694;54.382;9.708;2023-01-13T00:32:02;25.80;;;3.15;;
60859;SDS011;46694;54.382;9.708;2023-01-13T00:34:41;32.30;;;4.23;;
60859;SDS011;46694;54.382;9.708;2023-01-13T00:37:21;23.70;;;4.37;;
60859;SDS011;46694;54.382;9.708;2023-01-13T00:40:01;23.65;;;3.60;;
60859;SDS011;46694;54.382;9.708;2023-01-13T00:42:40;43.17;;;4.40;;
60859;SDS011;46694;54.382;9.708;2023-01-13T00:45:39;40.70;;;4.53;;
60859;SDS011;46694;54.382;9.708;2023-01-13T00:48:19;28.58;;;3.80;;
60859;SDS011;46694;54.382;9.708;2023-01-13T00:53:46;38.80;;;5.20;;
60859;SDS011;46694;54.382;9.708;2023-01-13T00:56:28;41.10;;;5.20;;
60859;SDS011;46694;54.382;9.708;2023-01-13T00:59:11;39.50;;;5.85;;
60859;SDS011;46694;54.382;9.708;2023-01-13T01:01:51;52.28;;;6.05;;
60859;SDS011;46694;54.382;9.708;2023-01-13T01:04:30;41.80;;;5.63;;
60859;SDS011;46694;54.382;9.708;2023-01-13T01:07:10;26.30;;;4.63;;
60859;SDS011;46694;54.382;9.708;2023-01-13T01:09:49;42.40;;;5.07;;
60859;SDS011;46694;54.382;9.708;2023-01-13T01:12:29;48.70;;;5.73;;
60859;SDS011;46694;54.382;9.708;2023-01-13T01:15:09;44.33;;;6.10;;
60859;SDS011;46694;54.382;9.708;2023-01-13T01:17:49;38.17;;;5.88;;
60859;SDS011;46694;54.382;9.708;2023-01-13T01:20:28;39.25;;;6.35;;
60859;SDS011;46694;54.382;9.708;2023-01-13T01:23:08;36.28;;;4.95;;
60859;SDS011;46694;54.382;9.708;2023-01-13T01:25:47;36.80;;;6.25;;
60859;SDS011;46694;54.382;9.708;2023-01-13T01:28:27;56.78;;;6.80;;
60859;SDS011;46694;54.382;9.708;2023-01-13T01:31:08;40.45;;;6.03;;
60859;SDS011;46694;54.382;9.708;2023-01-13T01:33:56;40.15;;;5.25;;
60859;SDS011;46694;54.382;9.708;2023-01-13T01:36:36;23.80;;;5.07;;
60859;SDS011;46694;54.382;9.708;2023-01-13T01:39:16;29.88;;;3.58;;
60859;SDS011;46694;54.382;9.708;2023-01-13T01:41:56;27.65;;;3.88;;
60859;SDS011;46694;54.382;9.708;2023-01-13T01:44:57;17.77;;;3.17;;
60859;SDS011;46694;54.382;9.708;2023-01-13T01:48:00;26.65;;;4.63;;
60859;SDS011;46694;54.382;9.708;2023-01-13T01:50:42;32.40;;;4.13;;
60859;SDS011;46694;54.382;9.708;2023-01-13T01:53:22;22.30;;;3.60;;
60859;SDS011;46694;54.382;9.708;2023-01-13T01:56:04;35.55;;;4.85;;
60859;SDS011;46694;54.382;9.708;2023-01-13T01:58:47;29.52;;;4.85;;
60859;SDS011;46694;54.382;9.708;2023-01-13T02:01:31;31.50;;;5.22;;
60859;SDS011;46694;54.382;9.708;2023-01-13T02:04:13;39.30;;;6.90;;
60859;SDS011;46694;54.382;9.708;2023-01-13T02:07:06;27.85;;;5.22;;
60859;SDS011;46694;54.382;9.708;2023-01-13T02:09:47;21.17;;;4.25;;
60859;SDS011;46694;54.382;9.708;2023-01-13T02:12:26;28.13;;;4.10;;
60859;SDS011;46694;54.382;9.708;2023-01-13T02:27:52;36.03;;;5.65;;
60859;SDS011;46694;54.382;9.708;2023-01-13T02:31:02;37.45;;;5.20;;
60859;SDS011;46694;54.382;9.708;2023-01-13T02:37:04;38.30;;;6.68;;
60859;SDS011;46694;54.382;9.708;2023-01-13T02:42:39;41.00;;;6.20;;
60859;SDS011;46694;54.382;9.708;2023-01-13T02:46:08;39.88;;;5.80;;
60859;SDS011;46694;54.382;9.708;2023-01-13T02:49:01;53.38;;;7.15;;
60859;SDS011;46694;54.382;9.708;2023-01-13T02:51:45;43.47;;;6.63;;
60859;SDS011;46694;54.382;9.708;2023-01-13T02:54:27;48.03;;;6.93;;
60859;SDS011;46694;54.382;9.708;2023-01-13T02:57:08;54.47;;;7.57;;
60859;SDS011;46694;54.382;9.708;2023-01-13T02:59:50;61.50;;;7.40;;
60859;SDS011;46694;54.382;9.708;2023-01-13T03:02:32;50.67;;;7.25;;
60859;SDS011;46694;54.382;9.708;2023-01-13T03:05:14;38.50;;;6.50;;
60859;SDS011;46694;54.382;9.708;2023-01-13T03:16:52;42.22;;;6.07;;
60859;SDS011;46694;54.382;9.708;2023-01-13T03:19:43;42.55;;;7.55;;
60859;SDS011;46694;54.382;9.708;2023-01-13T03:22:59;37.72;;;4.72;;
60859;SDS011;46694;54.382;9.708;2023-01-13T03:25:52;32.33;;;5.57;;
60859;SDS011;46694;54.382;9.708;2023-01-13T03:29:05;56.40;;;7.72;;
60859;SDS011;46694;54.382;9.708;2023-01-13T03:34:40;48.97;;;6.20;;
60859;SDS011;46694;54.382;9.708;2023-01-13T03:37:30;40.90;;;7.00;;
60859;SDS011;46694;54.382;9.708;2023-01-13T03:40:26;50.28;;;6.20;;
60859;SDS011;46694;54.382;9.708;2023-01-13T03:43:15;35.53;;;5.70;;
60859;SDS011;46694;54.382;9.708;2023-01-13T03:46:25;47.58;;;6.93;;
60859;SDS011;46694;54.382;9.708;2023-01-13T03:49:22;58.55;;;7.28;;
60859;SDS011;46694;54.382;9.708;2023-01-13T03:52:17;44.42;;;5.85;;
60859;SDS011;46694;54.382;9.708;2023-01-13T03:55:08;55.40;;;7.22;;
60859;SDS011;46694;54.382;9.708;2023-01-13T03:57:56;30.13;;;5.72;;
60859;SDS011;46694;54.382;9.708;2023-01-13T04:00:56;50.00;;;6.85;;
60859;SDS011;46694;54.382;9.708;2023-01-13T04:09:49;40.38;;;6.15;;
60859;SDS011;46694;54.382;9.708;2023-01-13T04:12:30;48.05;;;7.03;;
60859;SDS011;46694;54.382;9.708;2023-01-13T04:15:40;34.63;;;6.35;;
60859;SDS011;46694;54.382;9.708;2023-01-13T04:18:24;31.92;;;5.15;;
60859;SDS011;46694;54.382;9.708;2023-01-13T04:21:06;43.58;;;5.25;;
60859;SDS011;46694;54.382;9.708;2023-01-13T04:23:46;36.30;;;5.95;;
60859;SDS011;46694;54.382;9.708;2023-01-13T04:26:29;48.33;;;6.30;;
60859;SDS011;46694;54.382;9.708;2023-01-13T04:29:09;35.10;;;7.10;;
60859;SDS011;46694;54.382;9.708;2023-01-13T04:31:48;34.80;;;6.10;;
60859;SDS011;46694;54.382;9.708;2023-01-13T04:34:28;47.83;;;6.43;;
60859;SDS011;46694;54.382;9.708;2023-01-13T04:37:08;47.58;;;6.65;;
60859;SDS011;46694;54.382;9.708;2023-01-13T04:39:47;44.15;;;6.35;;
60859;SDS011;46694;54.382;9.708;2023-01-13T04:42:27;52.95;;;8.45;;
60859;SDS011;46694;54.382;9.708;2023-01-13T04:45:07;44.33;;;8.40;;
60859;SDS011;46694;54.382;9.708;2023-01-13T04:47:47;47.35;;;8.13;;
60859;SDS011;46694;54.382;9.708;2023-01-13T04:50:27;39.00;;;6.50;;
60859;SDS011;46694;54.382;9.708;2023-01-13T04:53:06;43.75;;;6.43;;
60859;SDS011;46694;54.382;9.708;2023-01-13T04:55:46;51.67;;;7.63;;
60859;SDS011;46694;54.382;9.708;2023-01-13T04:58:27;42.38;;;8.32;;
60859;SDS011;46694;54.382;9.708;2023-01-13T05:01:07;37.33;;;6.93;;
60859;SDS011;46694;54.382;9.708;2023-01-13T05:03:47;41.50;;;6.00;;
60859;SDS011;46694;54.382;9.708;2023-01-13T05:06:26;32.30;;;6.07;;
60859;SDS011;46694;54.382;9.708;2023-01-13T05:09:06;43.35;;;5.72;;
60859;SDS011;46694;54.382;9.708;2023-01-13T05:11:45;59.05;;;9.00;;
60859;SDS011;46694;54.382;9.708;2023-01-13T05:14:43;52.40;;;7.80;;
60859;SDS011;46694;54.382;9.708;2023-01-13T05:17:41;47.20;;;7.90;;
60859;SDS011;46694;54.382;9.708;2023-01-13T05:20:24;48.00;;;6.90;;
60859;SDS011;46694;54.382;9.708;2023-01-13T05:23:04;50.47;;;5.88;;
60859;SDS011;46694;54.382;9.708;2023-01-13T05:26:02;45.88;;;6.85;;
60859;SDS011;46694;54.382;9.708;2023-01-13T05:28:42;57.08;;;7.05;;
60859;SDS011;46694;54.382;9.708;2023-01-13T05:31:22;41.28;;;6.45;;
60859;SDS011;46694;54.382;9.708;2023-01-13T05:34:01;28.88;;;6.43;;
60859;SDS011;46694;54.382;9.708;2023-01-13T05:36:41;33.10;;;6.18;;
60859;SDS011;46694;54.382;9.708;2023-01-13T05:39:20;47.47;;;5.90;;
60859;SDS011;46694;54.382;9.708;2023-01-13T05:42:00;45.42;;;6.45;;
60859;SDS011;46694;54.382;9.708;2023-01-13T05:44:58;53.85;;;6.95;;
60859;SDS011;46694;54.382;9.708;2023-01-13T05:47:37;51.22;;;7.65;;
60859;SDS011;46694;54.382;9.708;2023-01-13T05:50:17;34.67;;;6.03;;
60859;SDS011;46694;54.382;9.708;2023-01-13T05:52:57;46.90;;;7.95;;
60859;SDS011;46694;54.382;9.708;2023-01-13T05:55:37;53.67;;;6.28;;
60859;SDS011;46694;54.382;9.708;2023-01-13T05:58:22;46.30;;;6.35;;
60859;SDS011;46694;54.382;9.708;2023-01-13T06:01:06;49.80;;;7.47;;
60859;SDS011;46694;54.382;9.708;2023-01-13T06:03:47;35.00;;;6.00;;
60859;SDS011;46694;54.382;9.708;2023-01-13T06:06:27;55.05;;;6.30;;
60859;SDS011;46694;54.382;9.708;2023-01-13T06:09:06;47.83;;;6.95;;
60859;SDS011;46694;54.382;9.708;2023-01-13T06:11:46;47.63;;;6.55;;
60859;SDS011;46694;54.382;9.708;2023-01-13T06:14:26;40.95;;;5.65;;
60859;SDS011;46694;54.382;9.708;2023-01-13T06:17:18;52.88;;;6.68;;
60859;SDS011;46694;54.382;9.708;2023-01-13T06:19:57;33.10;;;5.75;;
60859;SDS011;46694;54.382;9.708;2023-01-13T06:22:38;36.00;;;6.10;;
60859;SDS011;46694;54.382;9.708;2023-01-13T06:28:23;42.10;;;6.90;;
60859;SDS011;46694;54.382;9.708;2023-01-13T06:31:04;29.33;;;5.22;;
60859;SDS011;46694;54.382;9.708;2023-01-13T06:33:49;37.60;;;5.68;;
60859;SDS011;46694;54.382;9.708;2023-01-13T06:36:37;27.58;;;6.35;;
60859;SDS011;46694;54.382;9.708;2023-01-13T06:39:24;30.92;;;5.75;;
60859;SDS011;46694;54.382;9.708;2023-01-13T06:42:08;36.72;;;5.82;;
60859;SDS011;46694;54.382;9.708;2023-01-13T06:45:06;31.95;;;5.30;;
60859;SDS011;46694;54.382;9.708;2023-01-13T06:47:46;44.42;;;5.72;;
60859;SDS011;46694;54.382;9.708;2023-01-13T06:50:26;37.08;;;5.20;;
60859;SDS011;46694;54.382;9.708;2023-01-13T06:53:06;41.20;;;5.97;;
60859;SDS011;46694;54.382;9.708;2023-01-13T06:55:47;32.63;;;6.13;;
60859;SDS011;46694;54.382;9.708;2023-01-13T06:58:26;36.78;;;6.20;;
60859;SDS011;46694;54.382;9.708;2023-01-13T07:01:06;41.03;;;5.63;;
60859;SDS011;46694;54.382;9.708;2023-01-13T07:03:46;33.75;;;6.00;;
60859;SDS011;46694;54.382;9.708;2023-01-13T07:06:25;51.53;;;6.20;;
60859;SDS011;46694;54.382;9.708;2023-01-13T07:09:05;46.00;;;6.95;;
60859;SDS011;46694;54.382;9.708;2023-01-13T07:11:44;43.00;;;5.40;;
60859;SDS011;46694;54.382;9.708;2023-01-13T07:14:24;33.10;;;6.05;;
60859;SDS011;46694;54.382;9.708;2023-01-13T07:17:23;39.50;;;6.18;;
60859;SDS011;46694;54.382;9.708;2023-01-13T07:20:02;32.00;;;4.75;;
60859;SDS011;46694;54.382;9.708;2023-01-13T07:22:43;34.95;;;6.00;;
60859;SDS011;46694;54.382;9.708;2023-01-13T07:25:23;47.55;;;6.45;;
60859;SDS011;46694;54.382;9.708;2023-01-13T07:28:03;33.65;;;6.82;;
60859;SDS011;46694;54.382;9.708;2023-01-13T07:30:42;35.53;;;5.15;;
60859;SDS011;46694;54.382;9.708;2023-01-13T07:33:22;35.80;;;7.97;;
60859;SDS011;46694;54.382;9.708;2023-01-13T07:36:03;45.95;;;6.55;;
60859;SDS011;46694;54.382;9.708;2023-01-13T07:41:54;42.80;;;6.18;;
60859;SDS011;46694;54.382;9.708;2023-01-13T07:44:52;26.58;;;4.68;;
60859;SDS011;46694;54.382;9.708;2023-01-13T07:47:32;37.17;;;5.15;;
60859;SDS011;46694;54.382;9.708;2023-01-13T07:50:11;31.08;;;4.65;;
60859;SDS011;46694;54.382;9.708;2023-01-13T07:52:51;41.75;;;5.93;;
60859;SDS011;46694;54.382;9.708;2023-01-13T07:55:30;30.98;;;4.78;;
60859;SDS011;46694;54.382;9.708;2023-01-13T07:58:10;34.78;;;6.07;;
60859;SDS011;46694;54.382;9.708;2023-01-13T08:00:49;49.45;;;6.72;;
60859;SDS011;46694;54.382;9.708;2023-01-13T08:03:29;38.42;;;6.15;;
60859;SDS011;46694;54.382;9.708;2023-01-13T08:06:09;40.47;;;6.15;;
60859;SDS011;46694;54.382;9.708;2023-01-13T08:08:50;41.58;;;5.70;;
60859;SDS011;46694;54.382;9.708;2023-01-13T08:11:29;36.67;;;6.50;;
60859;SDS011;46694;54.382;9.708;2023-01-13T08:14:12;36.72;;;6.43;;
60859;SDS011;46694;54.382;9.708;2023-01-13T08:16:51;47.78;;;7.00;;
60859;SDS011;46694;54.382;9.708;2023-01-13T08:19:31;47.20;;;7.50;;
60859;SDS011;46694;54.382;9.708;2023-01-13T08:22:10;37.25;;;5.75;;
60859;SDS011;46694;54.382;9.708;2023-01-13T08:24:50;38.85;;;6.45;;
60859;SDS011;46694;54.382;9.708;2023-01-13T08:27:29;39.42;;;5.82;;
60859;SDS011;46694;54.382;9.708;2023-01-13T08:30:09;41.70;;;5.50;;
60859;SDS011;46694;54.382;9.708;2023-01-13T08:32:49;29.05;;;5.88;;
60859;SDS011;46694;54.382;9.708;2023-01-13T08:35:28;41.15;;;7.45;;
60859;SDS011;46694;54.382;9.708;2023-01-13T08:38:08;29.20;;;4.90;;
60859;SDS011;46694;54.382;9.708;2023-01-13T08:40:47;22.67;;;5.18;;
60859;SDS011;46694;54.382;9.708;2023-01-13T08:43:27;34.97;;;6.82;;
60859;SDS011;46694;54.382;9.708;2023-01-13T08:46:07;34.13;;;6.00;;
60859;SDS011;46694;54.382;9.708;2023-01-13T08:48:46;17.40;;;4.43;;
60859;SDS011;46694;54.382;9.708;2023-01-13T08:51:26;40.40;;;8.30;;
60859;SDS011;46694;54.382;9.708;2023-01-13T08:54:05;37.63;;;6.43;;
60859;SDS011;46694;54.382;9.708;2023-01-13T08:56:45;36.00;;;7.25;;
60859;SDS011;46694;54.382;9.708;2023-01-13T08:59:25;60.03;;;6.28;;
60859;SDS011;46694;54.382;9.708;2023-01-13T09:02:10;45.78;;;5.55;;
60859;SDS011;46694;54.382;9.708;2023-01-13T09:04:52;38.30;;;5.45;;
60859;SDS011;46694;54.382;9.708;2023-01-13T09:07:33;38.65;;;6.95;;
60859;SDS011;46694;54.382;9.708;2023-01-13T09:10:15;40.85;;;8.75;;
60859;SDS011;46694;54.382;9.708;2023-01-13T09:12:54;40.45;;;6.38;;
60859;SDS011;46694;54.382;9.708;2023-01-13T09:15:58;39.85;;;8.60;;
60859;SDS011;46694;54.382;9.708;2023-01-13T09:18:37;36.20;;;5.95;;
60859;SDS011;46694;54.382;9.708;2023-01-13T09:21:17;45.70;;;5.95;;
60859;SDS011;46694;54.382;9.708;2023-01-13T09:23:58;38.97;;;4.82;;
60859;SDS011;46694;54.382;9.708;2023-01-13T09:26:38;28.38;;;5.93;;
60859;SDS011;46694;54.382;9.708;2023-01-13T09:29:18;24.60;;;5.38;;
60859;SDS011;46694;54.382;9.708;2023-01-13T09:31:58;28.77;;;4.40;;
60859;SDS011;46694;54.382;9.708;2023-01-13T09:34:38;33.03;;;6.47;;
60859;SDS011;46694;54.382;9.708;2023-01-13T09:37:38;28.15;;;5.03;;
60859;SDS011;46694;54.382;9.708;2023-01-13T09:40:18;25.17;;;4.85;;
60859;SDS011;46694;54.382;9.708;2023-01-13T09:43:05;30.23;;;5.32;;
60859;SDS011;46694;54.382;9.708;2023-01-13T09:46:18;21.92;;;4.70;;
60859;SDS011;46694;54.382;9.708;2023-01-13T09:49:22;17.42;;;4.15;;
60859;SDS011;46694;54.382;9.708;2023-01-13T09:52:13;25.52;;;5.47;;
60859;SDS011;46694;54.382;9.708;2023-01-13T09:57:44;26.42;;;4.35;;
60859;SDS011;46694;54.382;9.708;2023-01-13T10:00:25;40.58;;;6.10;;
60859;SDS011;46694;54.382;9.708;2023-01-13T10:03:28;26.48;;;5.15;;
60859;SDS011;46694;54.382;9.708;2023-01-13T10:09:01;25.63;;;6.07;;
60859;SDS011;46694;54.382;9.708;2023-01-13T10:11:41;24.35;;;3.78;;
60859;SDS011;46694;54.382;9.708;2023-01-13T10:17:36;20.88;;;3.97;;
60859;SDS011;46694;54.382;9.708;2023-01-13T10:32:56;22.05;;;3.97;;
60859;SDS011;46694;54.382;9.708;2023-01-13T10:38:38;18.00;;;3.25;;
60859;SDS011;46694;54.382;9.708;2023-01-13T10:41:24;21.25;;;4.32;;
60859;SDS011;46694;54.382;9.708;2023-01-13T10:44:12;24.48;;;4.75;;
60859;SDS011;46694;54.382;9.708;2023-01-13T10:46:56;19.67;;;3.60;;
60859;SDS011;46694;54.382;9.708;2023-01-13T10:49:37;14.95;;;3.30;;
60859;SDS011;46694;54.382;9.708;2023-01-13T10:52:27;18.48;;;4.35;;
60859;SDS011;46694;54.382;9.708;2023-01-13T10:55:23;16.92;;;3.20;;
60859;SDS011;46694;54.382;9.708;2023-01-13T10:58:18;14.40;;;3.00;;
60859;SDS011;46694;54.382;9.708;2023-01-13T11:01:03;23.23;;;3.70;;
60859;SDS011;46694;54.382;9.708;2023-01-13T11:03:44;23.98;;;3.60;;
60859;SDS011;46694;54.382;9.708;2023-01-13T11:06:27;15.43;;;4.00;;
60859;SDS011;46694;54.382;9.708;2023-01-13T11:09:08;22.48;;;4.18;;
60859;SDS011;46694;54.382;9.708;2023-01-13T11:11:58;31.40;;;4.00;;
60859;SDS011;46694;54.382;9.708;2023-01-13T11:14:41;21.65;;;3.03;;
60859;SDS011;46694;54.382;9.708;2023-01-13T11:22:52;25.63;;;3.30;;
60859;SDS011;46694;54.382;9.708;2023-01-13T11:25:36;20.58;;;3.47;;
60859;SDS011;46694;54.382;9.708;2023-01-13T11:31:35;23.58;;;3.40;;
60859;SDS011;46694;54.382;9.708;2023-01-13T11:34:32;28.20;;;3.65;;
60859;SDS011;46694;54.382;9.708;2023-01-13T11:37:17;12.07;;;3.28;;
60859;SDS011;46694;54.382;9.708;2023-01-13T11:40:04;11.40;;;2.70;;
60859;SDS011;46694;54.382;9.708;2023-01-13T11:45:40;13.63;;;2.70;;
60859;SDS011;46694;54.382;9.708;2023-01-13T11:48:29;18.95;;;2.70;;
60859;SDS011;46694;54.382;9.708;2023-01-13T12:12:14;20.10;;;2.40;;
60859;SDS011;46694;54.382;9.708;2023-01-13T12:21:28;18.42;;;2.80;;
60859;SDS011;46694;54.382;9.708;2023-01-13T12:27:02;21.63;;;2.85;;
60859;SDS011;46694;54.382;9.708;2023-01-13T12:30:03;15.35;;;2.67;;
60859;SDS011;46694;54.382;9.708;2023-01-13T12:32:58;17.02;;;2.90;;
60859;SDS011;46694;54.382;9.708;2023-01-13T12:35:57;13.00;;;2.55;;
60859;SDS011;46694;54.382;9.708;2023-01-13T12:38:48;24.05;;;3.85;;
60859;SDS011;46694;54.382;9.708;2023-01-13T12:41:58;19.67;;;3.55;;
60859;SDS011;46694;54.382;9.708;2023-01-13T12:47:48;22.85;;;4.05;;
60859;SDS011;46694;54.382;9.708;2023-01-13T13:04:49;23.85;;;4.20;;
60859;SDS011;46694;54.382;9.708;2023-01-13T13:08:16;12.20;;;4.72;;
60859;SDS011;46694;54.382;9.708;2023-01-13T13:14:13;27.42;;;4.70;;
60859;SDS011;46694;54.382;9.708;2023-01-13T13:16:53;17.48;;;2.95;;
60859;SDS011;46694;54.382;9.708;2023-01-13T13:27:44;16.70;;;2.80;;
60859;SDS011;46694;54.382;9.708;2023-01-13T13:30:43;13.07;;;3.22;;
60859;SDS011;46694;54.382;9.708;2023-01-13T13:33:38;15.05;;;2.83;;
60859;SDS011;46694;54.382;9.708;2023-01-13T13:39:30;18.70;;;3.15;;
60859;SDS011;46694;54.382;9.708;2023-01-13T13:42:34;18.85;;;5.40;;
60859;SDS011;46694;54.382;9.708;2023-01-13T13:45:51;33.55;;;4.00;;
60859;SDS011;46694;54.382;9.708;2023-01-13T13:48:50;25.15;;;4.22;;
60859;SDS011;46694;54.382;9.708;2023-01-13T13:51:33;14.82;;;3.58;;
60859;SDS011;46694;54.382;9.708;2023-01-13T13:54:20;17.30;;;3.08;;
60859;SDS011;46694;54.382;9.708;2023-01-13T13:57:00;29.60;;;3.22;;
60859;SDS011;46694;54.382;9.708;2023-01-13T13:59:40;12.50;;;2.50;;
60859;SDS011;46694;54.382;9.708;2023-01-13T14:02:23;14.65;;;3.28;;
60859;SDS011;46694;54.382;9.708;2023-01-13T14:08:13;18.23;;;3.28;;
60859;SDS011;46694;54.382;9.708;2023-01-13T14:10:55;23.92;;;3.67;;
60859;SDS011;46694;54.382;9.708;2023-01-13T14:13:34;25.40;;;4.57;;
60859;SDS011;46694;54.382;9.708;2023-01-13T14:16:14;19.58;;;3.25;;
60859;SDS011;46694;54.382;9.708;2023-01-13T14:18:54;16.30;;;3.50;;
60859;SDS011;46694;54.382;9.708;2023-01-13T14:21:33;26.08;;;4.80;;
60859;SDS011;46694;54.382;9.708;2023-01-13T14:24:14;31.80;;;3.85;;
60859;SDS011;46694;54.382;9.708;2023-01-13T14:27:08;27.83;;;4.78;;
60859;SDS011;46694;54.382;9.708;2023-01-13T14:29:57;33.35;;;4.82;;
60859;SDS011;46694;54.382;9.708;2023-01-13T14:32:38;33.28;;;3.85;;
60859;SDS011;46694;54.382;9.708;2023-01-13T14:35:18;22.30;;;4.50;;
60859;SDS011;46694;54.382;9.708;2023-01-13T14:38:01;42.25;;;4.72;;
60859;SDS011;46694;54.382;9.708;2023-01-13T14:40:42;38.35;;;5.43;;
60859;SDS011;46694;54.382;9.708;2023-01-13T14:43:24;31.65;;;4.70;;
60859;SDS011;46694;54.382;9.708;2023-01-13T14:46:04;31.45;;;4.85;;
60859;SDS011;46694;54.382;9.708;2023-01-13T14:48:43;34.65;;;4.75;;
60859;SDS011;46694;54.382;9.708;2023-01-13T14:51:26;27.65;;;4.70;;
60859;SDS011;46694;54.382;9.708;2023-01-13T14:54:35;34.22;;;4.85;;
60859;SDS011;46694;54.382;9.708;2023-01-13T15:05:36;30.45;;;6.03;;
60859;SDS011;46694;54.382;9.708;2023-01-13T15:08:27;37.50;;;5.53;;
60859;SDS011;46694;54.382;9.708;2023-01-13T15:11:32;33.47;;;8.70;;
60859;SDS011;46694;54.382;9.708;2023-01-13T15:14:10;37.97;;;4.88;;
60859;SDS011;46694;54.382;9.708;2023-01-13T15:16:50;28.27;;;5.32;;
60859;SDS011;46694;54.382;9.708;2023-01-13T15:19:30;43.75;;;5.43;;
60859;SDS011;46694;54.382;9.708;2023-01-13T15:22:09;30.63;;;5.30;;
60859;SDS011;46694;54.382;9.708;2023-01-13T15:24:49;47.17;;;6.63;;
60859;SDS011;46694;54.382;9.708;2023-01-13T15:27:28;26.80;;;4.90;;
60859;SDS011;46694;54.382;9.708;2023-01-13T15:30:15;41.13;;;6.32;;
60859;SDS011;46694;54.382;9.708;2023-01-13T15:32:56;40.33;;;5.82;;
60859;SDS011;46694;54.382;9.708;2023-01-13T15:35:38;27.95;;;5.70;;
60859;SDS011;46694;54.382;9.708;2023-01-13T15:38:22;32.38;;;5.45;;
60859;SDS011;46694;54.382;9.708;2023-01-13T15:41:02;57.38;;;13.35;;
60859;SDS011;46694;54.382;9.708;2023-01-13T15:43:42;24.48;;;4.30;;
60859;SDS011;46694;54.382;9.708;2023-01-13T15:46:40;22.45;;;4.00;;
60859;SDS011;46694;54.382;9.708;2023-01-13T15:49:27;34.03;;;5.45;;
60859;SDS011;46694;54.382;9.708;2023-01-13T15:52:23;33.45;;;4.60;;
60859;SDS011;46694;54.382;9.708;2023-01-13T15:55:04;31.35;;;4.15;;
60859;SDS011;46694;54.382;9.708;2023-01-13T15:57:46;32.58;;;4.38;;
60859;SDS011;46694;54.382;9.708;2023-01-13T16:00:27;29.25;;;5.00;;
60859;SDS011;46694;54.382;9.708;2023-01-13T16:03:16;50.00;;;6.00;;
60859;SDS011;46694;54.382;9.708;2023-01-13T16:05:56;41.40;;;5.47;;
60859;SDS011;46694;54.382;9.708;2023-01-13T16:08:35;29.52;;;4.40;;
60859;SDS011;46694;54.382;9.708;2023-01-13T16:11:15;38.00;;;5.90;;
60859;SDS011;46694;54.382;9.708;2023-01-13T16:13:54;32.72;;;4.28;;
60859;SDS011;46694;54.382;9.708;2023-01-13T16:16:34;26.67;;;4.28;;
60859;SDS011;46694;54.382;9.708;2023-01-13T16:19:14;38.47;;;3.97;;
60859;SDS011;46694;54.382;9.708;2023-01-13T16:21:53;28.73;;;5.05;;
60859;SDS011;46694;54.382;9.708;2023-01-13T16:24:33;22.92;;;5.00;;
60859;SDS011;46694;54.382;9.708;2023-01-13T16:27:20;25.90;;;4.70;;
60859;SDS011;46694;54.382;9.708;2023-01-13T16:30:01;39.28;;;9.82;;
60859;SDS011;46694;54.382;9.708;2023-01-13T16:32:41;25.77;;;5.15;;
60859;SDS011;46694;54.382;9.708;2023-01-13T16:35:21;33.50;;;4.35;;
60859;SDS011;46694;54.382;9.708;2023-01-13T16:38:01;33.67;;;4.50;;
60859;SDS011;46694;54.382;9.708;2023-01-13T16:40:41;28.73;;;4.50;;
60859;SDS011;46694;54.382;9.708;2023-01-13T16:43:21;26.30;;;3.90;;
60859;SDS011;46694;54.382;9.708;2023-01-13T16:46:00;19.38;;;4.72;;
60859;SDS011;46694;54.382;9.708;2023-01-13T16:49:00;36.78;;;6.25;;
60859;SDS011;46694;54.382;9.708;2023-01-13T16:51:42;34.30;;;5.28;;
60859;SDS011;46694;54.382;9.708;2023-01-13T16:54:22;39.13;;;6.68;;
60859;SDS011;46694;54.382;9.708;2023-01-13T16:57:01;62.10;;;13.65;;
60859;SDS011;46694;54.382;9.708;2023-01-13T16:59:41;50.00;;;9.93;;
60859;SDS011;46694;54.382;9.708;2023-01-13T17:02:20;41.28;;;6.55;;
60859;SDS011;46694;54.382;9.708;2023-01-13T17:05:00;51.95;;;11.18;;
60859;SDS011;46694;54.382;9.708;2023-01-13T17:07:40;43.83;;;9.00;;
60859;SDS011;46694;54.382;9.708;2023-01-13T17:10:22;42.65;;;8.80;;
60859;SDS011;46694;54.382;9.708;2023-01-13T17:13:03;46.38;;;7.53;;
60859;SDS011;46694;54.382;9.708;2023-01-13T17:15:43;42.58;;;10.60;;
60859;SDS011;46694;54.382;9.708;2023-01-13T17:18:23;48.40;;;11.50;;
60859;SDS011;46694;54.382;9.708;2023-01-13T17:21:02;37.80;;;8.77;;
60859;SDS011;46694;54.382;9.708;2023-01-13T17:23:43;36.60;;;8.65;;
60859;SDS011;46694;54.382;9.708;2023-01-13T17:26:26;42.10;;;8.40;;
60859;SDS011;46694;54.382;9.708;2023-01-13T17:29:16;39.53;;;7.75;;
60859;SDS011;46694;54.382;9.708;2023-01-13T17:32:02;31.05;;;8.70;;
60859;SDS011;46694;54.382;9.708;2023-01-13T17:34:43;35.95;;;8.63;;
60859;SDS011;46694;54.382;9.708;2023-01-13T17:37:22;69.30;;;10.43;;
60859;SDS011;46694;54.382;9.708;2023-01-13T17:40:02;60.58;;;11.00;;
60859;SDS011;46694;54.382;9.708;2023-01-13T17:42:42;30.90;;;6.10;;
60859;SDS011;46694;54.382;9.708;2023-01-13T17:45:21;62.35;;;18.42;;
60859;SDS011;46694;54.382;9.708;2023-01-13T17:48:01;54.90;;;8.20;;
60859;SDS011;46694;54.382;9.708;2023-01-13T17:50:45;37.65;;;9.50;;
60859;SDS011;46694;54.382;9.708;2023-01-13T17:53:25;36.17;;;7.53;;
60859;SDS011;46694;54.382;9.708;2023-01-13T17:56:05;34.13;;;8.00;;
60859;SDS011;46694;54.382;9.708;2023-01-13T17:58:47;55.10;;;9.05;;
60859;SDS011;46694;54.382;9.708;2023-01-13T18:01:27;64.07;;;10.63;;
60859;SDS011;46694;54.382;9.708;2023-01-13T18:04:14;38.22;;;5.95;;
60859;SDS011;46694;54.382;9.708;2023-01-13T18:06:57;38.63;;;6.65;;
60859;SDS011;46694;54.382;9.708;2023-01-13T18:09:36;34.28;;;6.65;;
60859;SDS011;46694;54.382;9.708;2023-01-13T18:12:16;35.58;;;5.30;;
60859;SDS011;46694;54.382;9.708;2023-01-13T18:14:55;42.10;;;6.45;;
60859;SDS011;46694;54.382;9.708;2023-01-13T18:17:35;53.20;;;6.97;;
60859;SDS011;46694;54.382;9.708;2023-01-13T18:20:15;36.35;;;7.10;;
60859;SDS011;46694;54.382;9.708;2023-01-13T18:23:16;35.45;;;6.35;;
60859;SDS011;46694;54.382;9.708;2023-01-13T18:26:16;42.50;;;6.00;;
60859;SDS011;46694;54.382;9.708;2023-01-13T18:29:16;43.70;;;6.35;;
60859;SDS011;46694;54.382;9.708;2023-01-13T18:31:56;42.28;;;7.43;;
60859;SDS011;46694;54.382;9.708;2023-01-13T18:34:36;36.15;;;5.65;;
60859;SDS011;46694;54.382;9.708;2023-01-13T18:37:16;44.22;;;6.32;;
60859;SDS011;46694;54.382;9.708;2023-01-13T18:39:56;59.97;;;6.75;;
60859;SDS011;46694;54.382;9.708;2023-01-13T18:42:36;43.20;;;5.95;;
60859;SDS011;46694;54.382;9.708;2023-01-13T18:45:31;41.72;;;5.95;;
60859;SDS011;46694;54.382;9.708;2023-01-13T18:48:11;35.97;;;5.25;;
60859;SDS011;46694;54.382;9.708;2023-01-13T18:50:50;36.58;;;4.95;;